地図

経路データ

SID SEASON NUMBER BASIN SUBBASIN NAME ISO_TIME NATURE LAT LON WMO_WIND WMO_PRES WMO_AGENCY TRACK_TYPE DIST2LAND LANDFALL IFLAG USA_AGENCY USA_ATCF_ID USA_LAT USA_LON USA_RECORD USA_STATUS USA_WIND USA_PRES USA_SSHS USA_R34_NE USA_R34_SE USA_R34_SW USA_R34_NW USA_R50_NE USA_R50_SE USA_R50_SW USA_R50_NW USA_R64_NE USA_R64_SE USA_R64_SW USA_R64_NW USA_POCI USA_ROCI USA_RMW USA_EYE TOKYO_LAT TOKYO_LON TOKYO_GRADE TOKYO_WIND TOKYO_PRES TOKYO_R50_DIR TOKYO_R50_LONG TOKYO_R50_SHORT TOKYO_R30_DIR TOKYO_R30_LONG TOKYO_R30_SHORT TOKYO_LAND CMA_LAT CMA_LON CMA_CAT CMA_WIND CMA_PRES HKO_LAT HKO_LON HKO_CAT HKO_WIND HKO_PRES NEWDELHI_LAT NEWDELHI_LON NEWDELHI_GRADE NEWDELHI_WIND NEWDELHI_PRES NEWDELHI_CI NEWDELHI_DP NEWDELHI_POCI REUNION_LAT REUNION_LON REUNION_TYPE REUNION_WIND REUNION_PRES REUNION_TNUM REUNION_CI REUNION_RMW REUNION_R34_NE REUNION_R34_SE REUNION_R34_SW REUNION_R34_NW REUNION_R50_NE REUNION_R50_SE REUNION_R50_SW REUNION_R50_NW REUNION_R64_NE REUNION_R64_SE REUNION_R64_SW REUNION_R64_NW BOM_LAT BOM_LON BOM_TYPE BOM_WIND BOM_PRES BOM_TNUM BOM_CI BOM_RMW BOM_R34_NE BOM_R34_SE BOM_R34_SW BOM_R34_NW BOM_R50_NE BOM_R50_SE BOM_R50_SW BOM_R50_NW BOM_R64_NE BOM_R64_SE BOM_R64_SW BOM_R64_NW BOM_ROCI BOM_POCI BOM_EYE BOM_POS_METHOD BOM_PRES_METHOD NADI_LAT NADI_LON NADI_CAT NADI_WIND NADI_PRES WELLINGTON_LAT WELLINGTON_LON WELLINGTON_WIND WELLINGTON_PRES DS824_LAT DS824_LON DS824_STAGE DS824_WIND DS824_PRES TD9636_LAT TD9636_LON TD9636_STAGE TD9636_WIND TD9636_PRES TD9635_LAT TD9635_LON TD9635_WIND TD9635_PRES TD9635_ROCI NEUMANN_LAT NEUMANN_LON NEUMANN_CLASS NEUMANN_WIND NEUMANN_PRES MLC_LAT MLC_LON MLC_CLASS MLC_WIND MLC_PRES USA_GUST BOM_GUST BOM_GUST_PER REUNION_GUST REUNION_GUST_PER USA_SEAHGT USA_SEARAD_NE USA_SEARAD_SE USA_SEARAD_SW USA_SEARAD_NW STORM_SPEED STORM_DIR
1993271N14134 1993 74 WP MM FLO 1993-09-28 00:00:00 NR 13.8000 134.000 main 938 919 O_____________ jtwc_wp WP261993 13.8000 134.000 15 -1 5 292
1993271N14134 1993 74 WP MM FLO 1993-09-28 03:00:00 NR 13.8975 133.755 main 919 889 P_____________ WP261993 13.8975 133.755 15 -1 5 292
1993271N14134 1993 74 WP MM FLO 1993-09-28 06:00:00 NR 14.0000 133.500 main 889 860 O_____________ jtwc_wp WP261993 14.0000 133.500 15 -1 5 293
1993271N14134 1993 74 WP MM FLO 1993-09-28 09:00:00 NR 14.1075 133.235 main 860 842 P_____________ WP261993 14.1075 133.235 15 -1 5 292
1993271N14134 1993 74 WP MM FLO 1993-09-28 12:00:00 NR 14.2000 133.000 main 842 824 O_____________ jtwc_wp WP261993 14.2000 133.000 15 -1 4 291
1993271N14134 1993 74 WP MM FLO 1993-09-28 15:00:00 NR 14.2575 132.835 main 824 814 P_____________ WP261993 14.2575 132.835 17 -1 3 289
1993271N14134 1993 74 WP MM FLO 1993-09-28 18:00:00 NR 14.3000 132.700 main 814 803 O_____________ jtwc_wp WP261993 14.3000 132.700 20 -1 3 288
1993271N14134 1993 74 WP MM FLO 1993-09-28 21:00:00 NR 14.3500 132.542 main 796 786 P_____________ WP261993 14.3500 132.542 20 -1 3 289
1993271N14134 1993 74 WP MM FLO 1993-09-29 00:00:00 NR 14.4000 132.400 main 786 776 O_____________ jtwc_wp WP261993 14.4000 132.400 20 -1 3 290
1993271N14134 1993 74 WP MM FLO 1993-09-29 03:00:00 NR 14.4425 132.285 main 776 769 P_____________ WP261993 14.4425 132.285 20 -1 2 297
1993271N14134 1993 74 WP MM FLO 1993-09-29 06:00:00 NR 14.5000 132.200 main 769 763 O_____________ jtwc_wp WP261993 14.5000 132.200 20 -1 2 318
1993271N14134 1993 74 WP MM FLO 1993-09-29 09:00:00 NR 14.5925 132.143 main 763 763 P_____________ WP261993 14.5925 132.143 20 -1 2 333
1993271N14134 1993 74 WP MM FLO 1993-09-29 12:00:00 NR 14.7000 132.100 main 766 766 O_____________ jtwc_wp WP261993 14.7000 132.100 20 -1 2 338
1993271N14134 1993 74 WP MM FLO 1993-09-29 15:00:00 NR 14.8000 132.065 main 770 760 P_____________ WP261993 14.8000 132.065 20 -1 2 333
1993271N14134 1993 74 WP MM FLO 1993-09-29 18:00:00 NR 14.9000 132.000 main 765 759 O_____________ jtwc_wp WP261993 14.9000 132.000 20 -1 3 318
1993271N14134 1993 74 WP MM FLO 1993-09-29 21:00:00 NR 15.0075 131.873 main 759 744 P_____________ WP261993 15.0075 131.873 20 -1 4 304
1993271N14134 1993 74 WP MM FLO 1993-09-30 00:00:00 NR 15.1000 131.700 main 744 725 O_____________ jtwc_wp WP261993 15.1000 131.700 20 -1 4 292
1993271N14134 1993 74 WP MM FLO 1993-09-30 03:00:00 NR 15.1500 131.515 main 725 711 P_____________ WP261993 15.1500 131.515 20 -1 4 285
1993271N14134 1993 74 WP MM FLO 1993-09-30 06:00:00 NR 15.2000 131.300 main 711 697 O_____________ jtwc_wp WP261993 15.2000 131.300 20 -1 4 288
1993271N14134 1993 74 WP MM FLO 1993-09-30 09:00:00 NR 15.2849 131.072 main 697 675 P_____________ WP261993 15.2849 131.072 20 -1 5 292
1993271N14134 1993 74 WP MM FLO 1993-09-30 12:00:00 NR 15.4000 130.800 main 675 654 O_____________ jtwc_wp WP261993 15.4000 130.800 20 -1 6 293
1993271N14134 1993 74 WP MM FLO 1993-09-30 15:00:00 NR 15.5350 130.458 main 654 632 P_____________ WP261993 15.5350 130.458 22 -1 7 294
1993271N14134 1993 74 WP MM FLO 1993-09-30 18:00:00 NR 15.7000 130.100 main 632 614 O_____________ jtwc_wp WP261993 15.7000 130.100 25 -1 7 299
1993271N14134 1993 74 WP MM FLO 1993-09-30 21:00:00 NR 15.8924 129.792 main 621 616 P_____________ WP261993 15.8924 129.792 27 -1 6 315
1993271N14134 1993 74 WP MM FLO 1993-10-01 00:00:00 TS 16.1167 129.667 1004 tokyo main 620 605 OOO___________ jtwc_wp WP261993 16.1000 129.500 30 -1 16.0000 130.000 2 1004 0 0 0 16.3000 130.000 1 23 1004 5 320
1993271N14134 1993 74 WP MM FLO 1993-10-01 03:00:00 TS 16.2662 129.462 main 610 595 PPP___________ WP261993 16.3149 129.215 30 -1 16.1576 129.710 2 1003 0 0 16.2776 129.710 1 23 1003 5 306
1993271N14134 1993 74 WP MM FLO 1993-10-01 06:00:00 TS 16.4091 129.255 1002 tokyo main 595 573 OOOO__________ jtwc_wp WP261993 16.5000 128.900 30 -1 16.3000 129.400 2 1002 0 0 0 16.3000 129.400 1 23 1002 16.7000 129.800 TD 25 1005 6 297
1993271N14134 1993 74 WP MM FLO 1993-10-01 09:00:00 TS 16.5172 128.938 main 563 542 PPPP__________ WP261993 16.6225 128.515 30 -1 16.4150 129.057 2 1001 0 0 16.3925 129.058 1 23 1001 16.7602 129.303 TD 25 1005 7 287
1993271N14134 1993 74 WP MM FLO 1993-10-01 12:00:00 TS 16.6133 128.560 1000 tokyo main 542 514 OOOO__________ jtwc_wp WP261993 16.7000 128.100 30 -1 16.5000 128.700 2 1000 0 0 0 16.5000 128.700 1 23 1000 16.8000 128.800 TD 25 1005 7 282
1993271N14134 1993 74 WP MM FLO 1993-10-01 15:00:00 TS 16.6737 128.177 main 514 480 PPPP__________ WP261993 16.7573 127.715 30 -1 16.5649 128.350 2 1000 0 0 16.5649 128.350 1 26 1000 16.8074 128.292 TD 27 1002 8 277
1993271N14134 1993 74 WP MM FLO 1993-10-01 18:00:00 TS 16.7000 127.775 1000 tokyo main 480 449 OOOO__________ jtwc_wp WP261993 16.8000 127.300 30 -1 16.6000 128.000 2 1000 0 0 0 16.6000 128.000 1 29 1000 16.8000 127.800 TD 30 1000 8 273
1993271N14134 1993 74 WP MM FLO 1993-10-01 21:00:00 TS 16.7144 127.340 main 441 418 PPPP__________ WP261993 16.8578 126.763 32 -1 16.6000 127.642 2 998 0 0 16.6000 127.642 1 33 998 16.8000 127.313 TD 30 1000 8 272
1993271N14134 1993 74 WP MM FLO 1993-10-02 00:00:00 TS 16.7250 126.950 35 996 tokyo main 418 397 OOOO__________ jtwc_wp WP261993 16.9000 126.300 35 0 16.6000 127.300 3 35 996 0 9 40 40 0 16.6000 127.300 2 38 996 16.8000 126.900 TD 30 1000 6 273
1993271N14134 1993 74 WP MM FLO 1993-10-02 03:00:00 TS 16.7499 126.674 main 397 392 PPPP__________ WP261993 16.9148 126.097 35 0 16.6424 126.993 3 37 994 0 9 50 50 16.6424 126.993 2 38 994 16.7999 126.613 TD 35 997 5 276
1993271N14134 1993 74 WP MM FLO 1993-10-02 06:00:00 TS 16.7750 126.450 40 992 tokyo main 392 373 OOOO__________ jtwc_wp WP261993 16.9000 126.000 35 0 16.7000 126.700 3 40 992 0 9 60 60 0 16.7000 126.700 2 38 992 16.8000 126.400 TS 40 995 4 275
1993271N14134 1993 74 WP MM FLO 1993-10-02 09:00:00 TS 16.7912 126.207 main 373 362 PPPP__________ WP261993 16.8500 125.850 37 0 16.7575 126.393 3 42 991 0 9 70 70 16.7575 126.393 2 43 991 16.8000 126.193 TS 42 992 5 273
1993271N14134 1993 74 WP MM FLO 1993-10-02 12:00:00 TS 16.8000 125.975 45 990 tokyo main 362 351 OOOO__________ jtwc_wp WP261993 16.8000 125.700 40 0 16.8000 126.100 3 45 990 0 9 80 80 0 16.8000 126.100 3 48 990 16.8000 126.000 TS 45 990 4 272
1993271N14134 1993 74 WP MM FLO 1993-10-02 15:00:00 TS 16.8037 125.759 main 351 330 PPPP__________ WP261993 16.7999 125.565 42 0 16.8075 125.835 3 45 990 0 9 80 80 16.8075 125.835 3 48 990 16.8000 125.800 TS 47 987 4 270
1993271N14134 1993 74 WP MM FLO 1993-10-02 18:00:00 TS 16.8000 125.550 45 990 tokyo main 330 298 OOOO__________ jtwc_wp WP261993 16.8000 125.400 45 0 16.8000 125.600 3 45 990 0 9 80 80 0 16.8000 125.600 3 48 990 16.8000 125.600 STS 50 985 4 268
1993271N14134 1993 74 WP MM FLO 1993-10-02 21:00:00 TS 16.7875 125.336 main 298 276 PPPP__________ WP261993 16.7500 125.157 47 0 16.8000 125.393 3 47 987 0 9 100 100 16.8000 125.393 3 48 987 16.8000 125.400 STS 50 985 4 266
1993271N14134 1993 74 WP MM FLO 1993-10-03 00:00:00 TS 16.7750 125.125 50 985 tokyo main 276 255 OOOO__________ jtwc_wp WP261993 16.7000 124.900 50 0 16.8000 125.200 4 50 985 0 9 120 120 0 16.8000 125.200 3 48 985 16.8000 125.200 STS 50 985 4 268
1993271N14134 1993 74 WP MM FLO 1993-10-03 03:00:00 TS 16.7750 124.931 main 255 234 PPPP__________ WP261993 16.6999 124.700 52 0 16.8000 125.007 4 50 985 0 9 120 120 16.8000 125.007 3 48 985 16.8000 125.007 STS 52 982 4 270
1993271N14134 1993 74 WP MM FLO 1993-10-03 06:00:00 TS 16.7750 124.725 50 985 tokyo main 234 213 OOOO__________ jtwc_wp WP261993 16.7000 124.500 55 0 16.8000 124.800 4 50 985 0 9 120 120 0 16.8000 124.800 3 48 985 16.8000 124.800 STS 55 980 4 269
1993271N14134 1993 74 WP MM FLO 1993-10-03 09:00:00 TS 16.7643 124.492 main 213 181 PPPP__________ WP261993 16.6500 124.265 57 0 16.8000 124.565 4 52 982 0 9 130 130 16.8000 124.565 3 53 982 16.8074 124.573 STS 55 980 5 267
1993271N14134 1993 74 WP MM FLO 1993-10-03 12:00:00 TS 16.7500 124.225 55 980 tokyo main 181 161 OOOO__________ jtwc_wp WP261993 16.6000 124.000 60 0 16.8000 124.300 4 55 980 9 40 40 9 140 140 0 16.8000 124.300 3 58 980 16.8000 124.300 STS 55 980 5 268
1993271N14134 1993 74 WP MM FLO 1993-10-03 15:00:00 TS 16.7430 123.937 main 150 119 PPPP__________ WP261993 16.6000 123.715 62 0 16.8074 124.030 4 57 977 9 45 45 9 160 160 16.8074 124.030 3 58 977 16.7575 123.972 STS 57 977 6 268
1993271N14134 1993 74 WP MM FLO 1993-10-03 18:00:00 TS 16.7250 123.600 60 975 tokyo main 119 77 OOOO__________ jtwc_wp WP261993 16.6000 123.400 65 1 16.8000 123.700 4 60 975 9 50 50 9 180 180 0 16.8000 123.700 3 58 975 16.7000 123.600 STS 60 975 7 265
1993271N14134 1993 74 WP MM FLO 1993-10-03 21:00:00 TS 16.6844 123.203 main 77 46 PPPP__________ WP261993 16.5574 123.065 67 1 16.7651 123.265 4 62 972 9 55 55 9 200 200 16.7651 123.265 3 63 972 16.6499 123.215 STS 62 972 8 263
1993271N14134 1993 74 WP MM FLO 1993-10-04 00:00:00 TS 16.6250 122.775 65 970 tokyo main 46 10 OOOO__________ jtwc_wp WP261993 16.5000 122.700 70 1 16.7000 122.800 5 65 970 9 60 60 9 220 220 0 16.7000 122.800 4 68 970 16.6000 122.800 T 65 970 8 261
1993271N14134 1993 74 WP MM FLO 1993-10-04 03:00:00 TS 16.5574 122.363 main 10 0 PPPP__________ WP261993 16.4499 122.315 67 1 16.6074 122.385 5 65 970 9 60 60 9 220 220 16.6073 122.400 4 68 970 16.5650 122.350 T 62 972 8 259
1993271N14134 1993 74 WP MM FLO 1993-10-04 06:00:00 TS 16.4750 121.950 65 970 tokyo main 0 0 OOOO__________ jtwc_wp WP261993 16.4000 121.900 65 1 16.5000 122.000 5 65 970 9 60 60 9 220 220 0 16.5000 122.000 4 68 970 16.5000 121.900 STS 60 975 8 256
1993271N14134 1993 74 WP MM FLO 1993-10-04 09:00:00 TS 16.3562 121.537 main 0 0 PPPP__________ WP261993 16.3425 121.450 65 1 16.3773 121.665 5 62 972 9 55 55 9 210 210 16.3775 121.550 4 63 972 16.3274 121.485 STS 57 977 8 256
1993271N14134 1993 74 WP MM FLO 1993-10-04 12:00:00 TS 16.2750 121.125 60 975 tokyo main 0 0 OOOO__________ jtwc_wp WP261993 16.3000 121.000 65 1 16.3000 121.300 4 60 975 9 50 50 9 200 200 0 16.3000 121.100 3 58 975 16.2000 121.100 STS 55 980 8 268
1993271N14134 1993 74 WP MM FLO 1993-10-04 15:00:00 TS 16.3231 120.698 main 0 0 PPPP__________ WP261993 16.3000 120.570 62 0 16.3579 120.755 4 57 977 9 45 45 9 200 200 16.3421 120.730 3 58 977 16.2924 120.735 STS 52 982 8 277
1993271N14134 1993 74 WP MM FLO 1993-10-04 18:00:00 TS 16.3750 120.300 55 980 tokyo main 10 0 OOOO__________ jtwc_wp WP261993 16.3000 120.200 60 0 16.4000 120.300 4 55 980 9 40 40 9 200 200 0 16.4000 120.300 3 58 980 16.4000 120.400 STS 50 985 8 269
1993271N14134 1993 74 WP MM FLO 1993-10-04 21:00:00 TS 16.3064 119.905 main 0 0 PPPP__________ WP261993 16.2574 119.897 57 0 16.2423 120.152 4 52 982 9 9 200 200 16.3732 119.552 3 53 982 16.3525 120.017 STS 50 985 6 254
1993271N14134 1993 74 WP MM FLO 1993-10-05 00:00:00 TS 16.2000 119.675 50 985 tokyo main 10 10 OOOO__________ jtwc_wp WP261993 16.2000 119.700 55 0 16.1000 120.200 4 50 985 0 9 200 200 0 16.3000 119.000 3 48 985 16.2000 119.800 STS 50 985 3 216
1993271N14134 1993 74 WP MM FLO 1993-10-05 03:00:00 TS 16.0893 119.741 main 10 0 PPPP__________ WP261993 16.1349 119.598 52 0 16.1550 120.335 4 50 985 0 9 200 200 16.1623 119.115 3 48 985 15.9050 119.918 STS 52 982 3 120
1993271N14134 1993 74 WP MM FLO 1993-10-05 06:00:00 TS 16.0500 119.950 50 985 tokyo main 0 0 OOOO__________ jtwc_wp WP261993 16.1000 119.600 50 0 16.3000 120.500 4 50 985 0 9 200 200 0 16.1000 119.500 3 48 985 15.7000 120.200 STS 55 980 4 81
1993271N14134 1993 74 WP MM FLO 1993-10-05 09:00:00 TS 16.1456 120.103 main 0 0 PPPP__________ WP261993 16.1275 119.663 50 0 16.4200 120.558 4 47 987 0 9 200 200 16.2399 119.728 3 48 987 15.7951 120.465 STS 52 982 4 46
1993271N14134 1993 74 WP MM FLO 1993-10-05 12:00:00 TS 16.3500 120.275 45 990 tokyo main 10 0 OOOO__________ jtwc_wp WP261993 16.2000 119.800 50 0 16.6000 120.600 3 45 990 0 9 200 200 0 16.5000 120.000 3 48 990 16.1000 120.700 STS 50 985 6 37
1993271N14134 1993 74 WP MM FLO 1993-10-05 15:00:00 TS 16.5887 120.453 main 0 0 PPPP__________ WP261993 16.2624 119.963 50 0 16.8399 120.655 3 45 990 0 9 200 200 16.7626 120.385 3 48 990 16.4899 120.808 STS 47 987 7 34
1993271N14134 1993 74 WP MM FLO 1993-10-05 18:00:00 TS 16.9250 120.675 45 990 tokyo main 0 0 OOOO__________ jtwc_wp WP261993 16.4000 120.200 50 0 17.2000 120.800 3 45 990 0 9 200 200 0 17.1000 120.800 3 48 990 17.0000 120.900 TS 45 990 9 31
1993271N14134 1993 74 WP MM FLO 1993-10-05 21:00:00 TS 17.3586 120.941 main 0 0 PPPP__________ WP261993 16.6098 120.491 47 0 17.7275 121.090 3 45 990 0 9 210 210 17.5048 121.135 3 48 990 17.5924 121.048 TS 45 990 11 32
1993271N14134 1993 74 WP MM FLO 1993-10-06 00:00:00 TS 17.8750 121.300 45 990 tokyo main 0 0 OOOO__________ jtwc_wp WP261993 17.0000 120.900 45 0 18.3000 121.500 3 45 990 0 9 220 220 0 18.0000 121.500 3 48 990 18.2000 121.300 TS 45 990 13 36
1993271N14134 1993 74 WP MM FLO 1993-10-06 03:00:00 TS 18.4430 121.764 main 11 11 PPPP__________ WP261993 17.6550 121.447 42 0 18.7799 121.963 3 45 990 0 9 220 220 18.6149 121.962 3 48 990 18.7223 121.683 TS 45 990 15 41
1993271N14134 1993 74 WP MM FLO 1993-10-06 06:00:00 TS 19.0000 122.325 45 990 tokyo main 67 67 OOOO__________ jtwc_wp WP261993 18.4000 122.100 40 0 19.2000 122.500 3 45 990 0 9 220 220 0 19.2000 122.500 3 48 990 19.2000 122.200 TS 45 990 15 48
1993271N14134 1993 74 WP MM FLO 1993-10-06 09:00:00 TS 19.4599 122.942 main 138 138 PPPP__________ WP261993 19.0148 122.778 40 0 19.5574 123.085 3 45 990 0 9 220 220 19.6099 123.085 3 48 990 19.6576 122.820 TS 45 990 15 54
1993271N14134 1993 74 WP MM FLO 1993-10-06 12:00:00 TS 19.8750 123.600 45 990 tokyo main 216 216 OOOO__________ jtwc_wp WP261993 19.6000 123.500 40 0 19.9000 123.700 3 45 990 0 9 220 220 0 19.9000 123.700 3 48 990 20.1000 123.500 TS 45 990 15 57
1993271N14134 1993 74 WP MM FLO 1993-10-06 15:00:00 TS 20.2743 124.258 main 298 298 PPPP__________ WP261993 20.2000 124.258 40 0 20.2924 124.308 3 45 990 0 9 220 220 20.0624 124.309 3 48 990 20.5423 124.158 TS 45 990 15 56
1993271N14134 1993 74 WP MM FLO 1993-10-06 18:00:00 TS 20.7000 124.900 45 990 tokyo main 374 374 OOOO__________ jtwc_wp WP261993 20.8000 125.000 40 0 20.7000 124.900 3 45 990 0 9 220 220 0 20.3000 124.900 3 48 990 21.0000 124.800 TS 45 990 15 51
1993271N14134 1993 74 WP MM FLO 1993-10-06 21:00:00 TS 21.2001 125.479 main 458 458 PPPP__________ WP261993 21.3921 125.666 40 0 21.0768 125.421 3 45 990 0 9 220 220 20.8469 125.420 3 48 990 21.4847 125.408 TS 45 990 15 46
1993271N14134 1993 74 WP MM FLO 1993-10-07 00:00:00 TS 21.7500 126.075 45 990 tokyo main 504 504 OOOO__________ jtwc_wp WP261993 22.0000 126.300 40 0 21.5000 126.000 3 45 990 0 9 220 220 0 21.5000 126.000 3 48 990 22.0000 126.000 TS 45 990 16 48
1993271N14134 1993 74 WP MM FLO 1993-10-07 03:00:00 TS 22.2704 126.755 main 556 556 PPPP__________ WP261993 22.6122 126.944 37 0 21.9673 126.742 3 45 990 0 9 230 230 21.9973 126.742 3 48 990 22.5047 126.594 TS 45 990 18 49
1993271N14134 1993 74 WP MM FLO 1993-10-07 06:00:00 TS 22.9000 127.500 45 990 tokyo main 597 597 OOOO__________ jtwc_wp WP261993 23.3000 127.600 35 0 22.6000 127.600 3 45 990 0 9 240 240 0 22.6000 127.600 3 48 990 23.1000 127.200 TS 45 990 20 44
1993271N14134 1993 74 WP MM FLO 1993-10-07 09:00:00 TS 23.7161 128.296 main 654 651 PPPP__________ WP261993 24.0895 128.271 37 0 23.4677 128.543 3 47 987 0 9 250 250 23.4677 128.543 3 48 987 23.8397 127.828 TS 47 987 23 40
1993271N14134 1993 74 WP MM FLO 1993-10-07 12:00:00 TS 24.6750 129.125 50 985 tokyo main 716 607 OOOO__________ jtwc_wp WP261993 25.0000 129.000 40 0 24.5000 129.500 4 50 985 0 9 260 260 0 24.5000 129.500 3 48 985 24.7000 128.500 STS 50 985 25 36
1993271N14134 1993 74 WP MM FLO 1993-10-07 15:00:00 TS 25.6823 129.895 main 596 480 PPPP__________ WP261993 26.0036 129.763 42 0 25.5687 130.338 4 50 985 0 9 260 260 25.5687 130.338 3 48 985 25.5880 129.142 STS 50 985 26 35
1993271N14134 1993 74 WP MM FLO 1993-10-07 18:00:00 TS 26.7750 130.775 50 985 tokyo main 468 361 OOOO__________ jtwc_wp WP261993 27.1000 130.700 45 0 26.7000 131.200 4 50 985 9 9 260 260 0 26.7000 131.200 3 48 985 26.6000 130.000 STS 50 985 28 38
1993271N14134 1993 74 WP MM FLO 1993-10-07 21:00:00 TS 27.9186 131.842 main 361 308 PPPP__________ WP261993 28.2337 131.875 47 0 27.8400 132.134 4 52 982 9 9 280 280 27.8400 132.134 3 53 982 27.7609 131.223 STS 52 982 32 43
1993271N14134 1993 74 WP MM FLO 1993-10-08 00:00:00 TS 29.1067 133.200 55 980 tokyo main 309 300 OOOO__________ jtwc_wp WP261993 29.4000 133.300 50 0 29.0000 133.300 4 55 980 9 40 40 9 300 300 0 29.0000 133.300 3 58 980 29.0000 132.800 STS 55 980 35 48
1993271N14134 1993 74 WP MM FLO 1993-10-08 03:00:00 TS 30.2617 134.801 main 317 232 PPPP__________ WP261993 30.5384 134.849 52 0 30.1340 134.812 4 55 980 9 40 40 9 300 300 30.1340 134.812 3 58 980 30.2193 134.662 STS 55 980 38 52
1993271N14134 1993 74 WP MM FLO 1993-10-08 06:00:00 TS 31.4308 136.638 55 980 tokyo main 235 221 OOOO__________ jtwc_wp WP261993 31.7000 136.700 55 0 31.3000 136.600 4 55 980 9 40 40 9 300 300 0 31.3000 136.600 3 58 980 31.4000 136.700 STS 55 980 41 53
1993271N14134 1993 74 WP MM FLO 1993-10-08 09:00:00 TS 32.6805 138.621 main 212 138 PPP___________ WP261993 32.9259 139.003 57 0 32.5491 138.413 4 55 980 9 40 40 9 300 300 32.5663 138.447 3 58 980 STS 43 55
1993271N14134 1993 74 WP MM FLO 1993-10-08 12:00:00 TS 33.9000 140.867 55 980 tokyo main 144 142 OOO___________ jtwc_wp WP261993 34.1000 141.400 60 0 33.8000 140.600 4 55 980 9 40 40 9 300 300 0 33.8000 140.600 3 58 980 44 60
1993271N14134 1993 74 WP MM FLO 1993-10-08 15:00:00 TS 34.9316 143.243 main 226 226 PPP___________ WP261993 35.1239 143.331 60 0 34.8964 143.338 4 980 9 9 34.7744 143.059 3 53 980 47 64
1993271N14134 1993 74 WP MM FLO 1993-10-08 18:00:00 ET 35.9667 145.967 980 tokyo main 459 459 OOO___________ jtwc_wp WP261993 36.1000 145.400 60 0 36.0000 146.500 6 980 0 0 0 35.8000 146.000 9 48 980 54 66
1993271N14134 1993 74 WP MM FLO 1993-10-08 21:00:00 ET 37.1566 149.296 main 676 676 PPP___________ WP261993 36.9542 148.077 60 0 37.3107 150.055 6 980 0 0 37.2048 149.757 9 48 980 60 66
1993271N14134 1993 74 WP MM FLO 1993-10-09 00:00:00 ET 38.3636 152.873 980 tokyo main 818 818 OOO___________ jtwc_wp WP261993 38.0000 151.200 60 0 38.5000 153.500 6 980 0 0 0 38.5000 153.500 9 48 980 57 67
1993271N14134 1993 74 WP MM FLO 1993-10-09 03:00:00 ET 39.3842 155.973 main 859 859 PPP___________ WP261993 39.4927 154.692 60 0 39.3513 156.273 6 978 0 0 39.3629 156.313 9 48 978 47 68
1993271N14134 1993 74 WP MM FLO 1993-10-09 06:00:00 ET 40.1333 158.500 976 tokyo main 932 930 OOO___________ jtwc_wp WP261993 41.2000 158.500 60 0 40.0000 158.500 6 976 0 0 0 40.0000 158.500 9 48 976 35 72
1993271N14134 1993 74 WP MM FLO 1993-10-09 09:00:00 ET 40.4913 160.374 main 1017 1017 _PP___________ WP261993 -1 40.4913 160.374 6 976 0 0 40.4913 160.374 9 43 976 28 72
1993271N14134 1993 74 WP MM FLO 1993-10-09 12:00:00 ET 41.0000 162.000 976 tokyo main 1088 1088 _OO___________ -1 41.0000 162.000 6 976 0 0 0 41.0000 162.000 9 38 976 29 64
1993271N14134 1993 74 WP MM FLO 1993-10-09 15:00:00 ET 41.7490 163.784 main 1121 1114 _PP___________ -1 41.7490 163.784 6 976 0 0 41.7490 163.784 9 38 976 30 60
1993271N14134 1993 74 WP MM FLO 1993-10-09 18:00:00 ET 42.5000 165.500 976 tokyo main 1125 1125 _OO___________ -1 42.5000 165.500 6 976 0 0 0 42.5000 165.500 9 38 976 26 63
1993271N14134 1993 74 WP MM FLO 1993-10-09 21:00:00 ET 42.9559 166.978 main 1160 1160 _PP___________ -1 42.9559 166.978 6 976 0 0 42.9559 166.978 9 38 976 24 66
1993271N14134 1993 74 WP MM FLO 1993-10-10 00:00:00 ET 43.5000 168.500 976 tokyo main 1196 1196 _OO___________ -1 43.5000 168.500 6 976 0 0 0 43.5000 168.500 9 38 976 29 60
1993271N14134 1993 74 WP MM FLO 1993-10-10 03:00:00 ET 44.4188 170.449 main 1220 1217 _PP___________ -1 44.4289 170.493 6 976 0 0 44.3986 170.362 9 38 976 35 55
1993271N14134 1993 74 WP MM FLO 1993-10-10 06:00:00 ET 45.5000 172.500 976 tokyo main 1226 1223 _OO___________ -1 45.5000 172.500 6 976 0 0 0 45.5000 172.500 9 38 976 33 51
1993271N14134 1993 74 WP MM FLO 1993-10-10 09:00:00 ET 46.5344 174.152 main 1241 1217 _P____________ -1 46.5344 174.152 6 976 0 0 9 29 46
1993271N14134 1993 74 WP MM FLO 1993-10-10 12:00:00 ET 47.5000 175.500 976 tokyo main 1223 1148 _O____________ -1 47.5000 175.500 6 976 0 0 0 24 44
1993271N14134 1993 74 WP MM FLO 1993-10-10 15:00:00 ET 48.2467 176.586 main 1142 1046 _P____________ -1 48.2467 176.586 6 976 0 0 20 42
1993271N14134 1993 74 WP MM FLO 1993-10-10 18:00:00 ET 49.0000 177.500 976 tokyo main 1039 929 _O____________ -1 49.0000 177.500 6 976 0 0 0 21 37
1993271N14134 1993 74 WP MM FLO 1993-10-10 21:00:00 ET 49.9625 178.537 main 924 821 _P____________ -1 49.9625 178.537 6 975 0 0 24 33
1993271N14134 1993 74 WP MM FLO 1993-10-11 00:00:00 ET 51.0000 179.500 974 tokyo main 817 734 _O____________ -1 51.0000 179.500 6 974 0 0 0 23 28
1993271N14134 1993 74 EP CP FLO 1993-10-11 03:00:00 ET 52.0126 180.297 main 734 673 _P____________ -1 52.0126 -179.703 6 974 0 0 22 25
1993271N14134 1993 74 EP CP FLO 1993-10-11 06:00:00 ET 53.0000 181.000 main 672 _O____________ -1 53.0000 181.000 6 974 0 0 0 21 23

デジタル台風データ・検索

IBTrACS Databaseについて

本データベースは、米国NOAAが公開する1842年以降の世界の熱帯低気圧のベストトラックデータアーカイブInternational Best Track Archive for Climate Stewardship (IBTrACS)を、ウェブで閲覧しやすい形式に変換したものです。

最終更新日:2021-10-25